createdAt,value
2019-04-20T00:01:28.712Z,101861.52
2019-04-20T00:03:53.743Z,101861.17
2019-04-20T00:06:22.340Z,101856.87
2019-04-20T00:08:58.688Z,101857.85
2019-04-20T00:11:28.364Z,101856.52
2019-04-20T00:14:01.333Z,101858.17
2019-04-20T00:16:23.090Z,101852.72
2019-04-20T00:18:55.655Z,101857.37
2019-04-20T00:21:49.658Z,101853.73
2019-04-20T00:24:23.358Z,101847.95
2019-04-20T00:29:35.319Z,101846.97
2019-04-20T00:32:01.618Z,101852.55
2019-04-20T00:34:27.910Z,101850.00
2019-04-20T00:36:49.774Z,101854.77
2019-04-20T00:39:20.184Z,101859.08
2019-04-20T00:41:56.216Z,101855.49
2019-04-20T00:44:26.905Z,101851.98
2019-04-20T00:47:03.170Z,101850.70
2019-04-20T00:49:36.040Z,101853.70
2019-04-20T00:52:21.201Z,101841.34
2019-04-20T00:54:22.257Z,101835.06
2019-04-20T00:56:53.178Z,101834.25
2019-04-20T00:59:35.401Z,101839.72
2019-04-20T01:02:10.315Z,101836.56
2019-04-20T01:04:44.698Z,101842.83
2019-04-20T01:07:15.232Z,101848.78
2019-04-20T01:10:05.243Z,101849.38
2019-04-20T01:12:36.544Z,101849.07
2019-04-20T01:15:11.277Z,101844.53
2019-04-20T01:17:41.409Z,101846.08
2019-04-20T01:20:09.131Z,101846.23
2019-04-20T01:22:44.363Z,101850.54
2019-04-20T01:25:16.903Z,101848.16
2019-04-20T01:27:59.086Z,101849.23
2019-04-20T01:30:17.460Z,101845.65
2019-04-20T01:32:58.539Z,101846.92
2019-04-20T01:35:30.369Z,101846.91
2019-04-20T01:38:04.182Z,101853.59
2019-04-20T01:40:13.091Z,101849.14
2019-04-20T01:42:42.582Z,101845.09
2019-04-20T01:45:19.098Z,101860.00
2019-04-20T01:47:46.161Z,101859.66
2019-04-20T01:50:16.682Z,101853.95
2019-04-20T01:52:55.029Z,101863.22
2019-04-20T01:55:41.566Z,101853.86
2019-04-20T01:58:22.062Z,101856.33
2019-04-20T02:00:49.148Z,101850.84
2019-04-20T02:03:40.533Z,101852.45
2019-04-20T02:06:09.914Z,101853.73
2019-04-20T02:08:35.852Z,101865.92
2019-04-20T02:11:07.369Z,101855.72
2019-04-20T02:13:43.580Z,101858.88
2019-04-20T02:16:15.763Z,101862.75
2019-04-20T02:18:57.968Z,101862.97
2019-04-20T02:21:25.877Z,101860.52
2019-04-20T02:23:46.203Z,101863.75
2019-04-20T02:26:07.418Z,101856.34
2019-04-20T02:29:00.768Z,101856.47
2019-04-20T02:34:26.085Z,101866.78
2019-04-20T02:36:58.015Z,101864.27
2019-04-20T02:46:55.876Z,101862.98
2019-04-20T03:01:45.564Z,101862.89
2019-04-20T03:04:02.917Z,101858.94
2019-04-20T03:06:40.009Z,101857.63
2019-04-20T03:09:21.400Z,101858.27
2019-04-20T03:11:58.203Z,101859.14
2019-04-20T03:14:19.140Z,101859.78
2019-04-20T03:16:45.821Z,101856.95
2019-04-20T03:19:17.347Z,101857.71
2019-04-20T03:22:02.366Z,101849.81
2019-04-20T03:24:26.825Z,101850.41
2019-04-20T03:27:10.835Z,101850.27
2019-04-20T03:29:55.252Z,101852.90
2019-04-20T03:32:50.083Z,101852.35
2019-04-20T03:37:30.612Z,101849.80
2019-04-20T03:39:47.609Z,101853.00
2019-04-20T03:42:07.569Z,101847.69
2019-04-20T03:44:38.904Z,101848.05
2019-04-20T03:47:11.479Z,101845.75
2019-04-20T03:50:00.245Z,101851.38
2019-04-20T03:52:43.612Z,101854.52
2019-04-20T03:55:19.905Z,101850.95
2019-04-20T03:58:14.315Z,101851.98
2019-04-20T04:00:58.282Z,101852.57
2019-04-20T04:06:09.556Z,101850.50
2019-04-20T04:08:35.365Z,101857.16
2019-04-20T04:11:18.865Z,101851.98
2019-04-20T04:13:27.303Z,101855.03
2019-04-20T04:16:02.885Z,101859.33
2019-04-20T04:18:33.310Z,101857.77
2019-04-20T04:21:02.908Z,101859.93
2019-04-20T04:23:49.120Z,101862.50
2019-04-20T04:26:18.745Z,101866.28
2019-04-20T04:28:43.402Z,101867.97
2019-04-20T04:31:16.569Z,101859.50
2019-04-20T04:33:55.941Z,101870.05
2019-04-20T04:36:15.401Z,101868.59
2019-04-20T04:39:01.042Z,101873.20
2019-04-20T04:41:24.231Z,101884.08
2019-04-20T04:43:51.744Z,101873.58
2019-04-20T04:46:03.761Z,101881.36
2019-04-20T04:48:38.419Z,101878.90
2019-04-20T04:51:12.866Z,101883.77
2019-04-20T04:53:45.215Z,101882.67
2019-04-20T04:56:09.403Z,101883.43
2019-04-20T04:58:36.288Z,101884.55
2019-04-20T05:01:12.672Z,101885.61
2019-04-20T05:03:57.715Z,101884.30
2019-04-20T05:06:29.154Z,101883.43
2019-04-20T05:08:49.914Z,101887.47
2019-04-20T05:11:15.216Z,101890.29
2019-04-20T05:13:50.581Z,101893.19
2019-04-20T05:16:37.279Z,101893.66
2019-04-20T05:19:10.496Z,101897.95
2019-04-20T05:22:01.375Z,101889.22
2019-04-20T05:24:31.238Z,101895.03
2019-04-20T05:27:13.659Z,101892.23
2019-04-20T05:29:25.034Z,101896.27
2019-04-20T05:31:57.183Z,101894.27
2019-04-20T05:34:45.366Z,101896.99
2019-04-20T05:37:17.342Z,101894.70
2019-04-20T05:39:46.525Z,101892.14
2019-04-20T05:42:16.192Z,101890.36
2019-04-20T05:44:46.107Z,101893.41
2019-04-20T05:47:19.544Z,101886.98
2019-04-20T05:49:41.491Z,101885.34
2019-04-20T05:52:31.509Z,101886.32
2019-04-20T05:54:48.973Z,101884.00
2019-04-20T05:57:21.080Z,101887.08
2019-04-20T05:59:57.181Z,101888.53
2019-04-20T06:02:16.946Z,101892.13
2019-04-20T06:04:59.959Z,101889.80
2019-04-20T06:07:24.000Z,101897.83
2019-04-20T06:09:54.438Z,101888.56
2019-04-20T06:12:36.306Z,101892.55
2019-04-20T06:14:53.700Z,101891.05
2019-04-20T06:17:44.463Z,101889.52
2019-04-20T06:20:21.556Z,101882.99
2019-04-20T06:22:51.361Z,101881.64
2019-04-20T06:25:40.818Z,101884.40
2019-04-20T06:27:52.809Z,101888.02
2019-04-20T06:30:21.912Z,101884.36
2019-04-20T06:33:49.903Z,101891.13
2019-04-20T06:38:53.909Z,101886.25
2019-04-20T06:43:34.810Z,101891.23
2019-04-20T06:46:09.775Z,101887.84
2019-04-20T06:48:40.315Z,101883.33
2019-04-20T06:50:58.112Z,101883.39
2019-04-20T06:53:45.313Z,101884.70
2019-04-20T06:56:15.768Z,101888.72
2019-04-20T06:58:49.773Z,101886.14
2019-04-20T07:01:23.587Z,101883.02
2019-04-20T07:06:35.587Z,101880.58
2019-04-20T07:08:58.137Z,101880.35
2019-04-20T07:11:24.063Z,101881.28
2019-04-20T07:13:41.259Z,101877.28
2019-04-20T07:16:36.310Z,101879.38
2019-04-20T07:19:16.825Z,101877.66
2019-04-20T07:24:43.134Z,101883.30
2019-04-20T07:27:00.741Z,101879.16
2019-04-20T07:29:40.890Z,101876.48
2019-04-20T07:31:58.802Z,101874.73
2019-04-20T07:34:33.502Z,101873.34
2019-04-20T07:38:01.338Z,101876.33
2019-04-20T07:40:07.758Z,101877.77
2019-04-20T07:42:51.815Z,101874.67
2019-04-20T07:45:07.454Z,101868.67
2019-04-20T07:47:40.494Z,101869.33
2019-04-20T07:50:02.397Z,101871.92
2019-04-20T07:52:16.420Z,101868.75
2019-04-20T07:55:28.543Z,101867.39
2019-04-20T07:57:35.031Z,101863.66
2019-04-20T08:00:08.445Z,101864.06
2019-04-20T08:02:57.233Z,101868.41
2019-04-20T08:05:36.934Z,101871.17
2019-04-20T08:08:14.845Z,101871.03
2019-04-20T08:10:39.377Z,101868.63
2019-04-20T08:13:25.154Z,101866.35
2019-04-20T08:15:51.213Z,101866.03
2019-04-20T08:18:21.379Z,101865.65
2019-04-20T08:20:47.567Z,101866.03
2019-04-20T08:23:17.249Z,101867.15
2019-04-20T08:25:44.610Z,101866.14
2019-04-20T08:28:06.339Z,101864.56
2019-04-20T08:31:02.463Z,101860.63
2019-04-20T08:33:36.650Z,101856.02
2019-04-20T08:36:10.757Z,101851.77
2019-04-20T08:39:09.621Z,101855.41
2019-04-20T08:41:09.700Z,101847.41
2019-04-20T08:43:47.037Z,101846.70
2019-04-20T08:46:17.753Z,101843.63
2019-04-20T08:48:40.831Z,101842.78
2019-04-20T08:51:16.321Z,101839.80
2019-04-20T08:53:45.071Z,101842.19
2019-04-20T08:56:09.826Z,101836.87
2019-04-20T08:58:24.898Z,101836.93
2019-04-20T09:00:58.701Z,101838.75
2019-04-20T09:03:30.156Z,101830.80
2019-04-20T09:06:03.533Z,101836.08
2019-04-20T09:08:30.804Z,101829.16
2019-04-20T09:11:16.881Z,101829.05
2019-04-20T09:13:34.294Z,101822.95
2019-04-20T09:15:57.917Z,101822.95
2019-04-20T09:18:43.355Z,101805.33
2019-04-20T09:21:19.938Z,101817.53
2019-04-20T09:23:57.915Z,101808.83
2019-04-20T09:26:32.758Z,101802.73
2019-04-20T09:29:06.883Z,101812.46
2019-04-20T09:31:48.646Z,101809.17
2019-04-20T09:34:33.756Z,101814.06
2019-04-20T09:37:17.894Z,101813.57
2019-04-20T09:39:46.118Z,101806.95
2019-04-20T09:42:21.101Z,101809.81
2019-04-20T09:44:55.549Z,101809.31
2019-04-20T09:47:27.440Z,101802.66
2019-04-20T09:50:02.719Z,101807.77
2019-04-20T09:52:31.252Z,101804.34
2019-04-20T09:55:06.910Z,101808.22
2019-04-20T09:57:37.962Z,101799.64
2019-04-20T10:00:08.674Z,101796.81
2019-04-20T10:02:27.771Z,101793.87
2019-04-20T10:04:53.776Z,101792.92
2019-04-20T10:07:26.149Z,101792.19
2019-04-20T10:09:53.867Z,101790.95
2019-04-20T10:12:24.068Z,101791.17
2019-04-20T10:14:53.265Z,101787.44
2019-04-20T10:17:23.446Z,101788.92
2019-04-20T10:19:53.690Z,101792.48
2019-04-20T10:22:22.597Z,101787.09
2019-04-20T10:24:52.659Z,101787.67
2019-04-20T10:27:21.726Z,101778.78
2019-04-20T10:29:51.443Z,101784.19
2019-04-20T10:32:25.088Z,101781.88
2019-04-20T10:34:50.729Z,101776.55
2019-04-20T10:37:23.866Z,101776.50
2019-04-20T10:39:52.840Z,101777.23
2019-04-20T10:42:21.792Z,101765.98
2019-04-20T10:44:54.931Z,101771.44
2019-04-20T10:47:21.168Z,101768.73
2019-04-20T10:49:50.901Z,101777.90
2019-04-20T10:52:20.202Z,101765.16
2019-04-20T10:54:50.275Z,101770.70
2019-04-20T10:57:19.522Z,101768.77
2019-04-20T10:59:48.278Z,101767.75
2019-04-20T11:02:16.943Z,101759.37
2019-04-20T11:04:46.464Z,101755.34
2019-04-20T11:07:16.362Z,101763.95
2019-04-20T11:09:46.977Z,101756.45
2019-04-20T11:12:16.600Z,101751.83
2019-04-20T11:14:45.757Z,101757.65
2019-04-20T11:17:14.555Z,101754.76
2019-04-20T11:19:43.416Z,101750.72
2019-04-20T11:22:12.516Z,101752.63
2019-04-20T11:24:41.418Z,101746.54
2019-04-20T11:27:10.108Z,101741.22
2019-04-20T11:29:40.273Z,101733.47
2019-04-20T11:32:10.335Z,101731.41
2019-04-20T11:34:40.846Z,101745.22
2019-04-20T11:37:11.027Z,101728.63
2019-04-20T11:39:41.054Z,101727.28
2019-04-20T11:42:10.105Z,101726.80
2019-04-20T11:44:38.858Z,101713.62
2019-04-20T11:47:08.458Z,101717.29
2019-04-20T11:49:37.606Z,101717.30
2019-04-20T11:52:07.653Z,101715.58
2019-04-20T11:54:36.662Z,101713.70
2019-04-20T11:57:06.956Z,101706.91
2019-04-20T11:59:37.138Z,101702.08
2019-04-20T12:02:30.147Z,101702.60
2019-04-20T12:05:13.219Z,101701.05
2019-04-20T12:07:35.256Z,101708.26
2019-04-20T12:10:09.067Z,101701.65
2019-04-20T12:12:41.229Z,101692.08
2019-04-20T12:15:04.955Z,101696.69
2019-04-20T12:17:33.637Z,101687.30
2019-04-20T12:20:02.370Z,101690.28
2019-04-20T12:22:32.350Z,101688.39
2019-04-20T12:25:02.460Z,101678.13
2019-04-20T12:27:32.431Z,101683.41
2019-04-20T12:30:01.796Z,101674.47
2019-04-20T12:32:38.602Z,101669.12
2019-04-20T12:35:02.564Z,101664.01
2019-04-20T12:37:31.376Z,101676.70
2019-04-20T12:40:00.800Z,101665.45
2019-04-20T12:42:30.789Z,101666.63
2019-04-20T12:44:59.703Z,101665.08
2019-04-20T12:47:28.376Z,101661.31
2019-04-20T12:49:57.090Z,101653.54
2019-04-20T12:52:26.300Z,101654.81
2019-04-20T12:54:55.026Z,101653.50
2019-04-20T12:57:24.754Z,101648.53
2019-04-20T12:59:54.096Z,101642.09
2019-04-20T13:02:23.197Z,101641.09
2019-04-20T13:04:53.290Z,101639.06
2019-04-20T13:07:22.963Z,101639.30
2019-04-20T13:09:52.744Z,101640.02
2019-04-20T13:12:32.088Z,101636.91
2019-04-20T13:15:34.189Z,101642.70
2019-04-20T13:18:03.653Z,101634.66
2019-04-20T13:20:32.459Z,101622.55
2019-04-20T13:23:03.650Z,101614.55
2019-04-20T13:25:32.647Z,101618.19
2019-04-20T13:28:03.067Z,101606.25
2019-04-20T13:30:32.298Z,101608.43
2019-04-20T13:33:01.708Z,101612.61
2019-04-20T13:35:30.581Z,101608.35
2019-04-20T13:38:00.306Z,101607.64
2019-04-20T13:40:31.045Z,101606.92
2019-04-20T13:42:59.968Z,101604.48
2019-04-20T13:45:28.823Z,101603.34
2019-04-20T13:47:57.434Z,101596.59
2019-04-20T13:50:26.347Z,101597.87
2019-04-20T13:52:55.300Z,101598.69
2019-04-20T13:55:26.907Z,101591.62
2019-04-20T13:58:04.230Z,101590.47
2019-04-20T14:01:08.499Z,101583.81
2019-04-20T14:03:38.744Z,101579.77
2019-04-20T14:06:08.900Z,101576.02
2019-04-20T14:08:39.250Z,101572.55
2019-04-20T14:11:09.367Z,101571.42
2019-04-20T14:13:45.064Z,101564.06
2019-04-20T14:16:09.175Z,101553.39
2019-04-20T14:18:38.042Z,101563.56
2019-04-20T14:21:08.033Z,101561.05
2019-04-20T14:23:37.061Z,101559.64
2019-04-20T14:26:07.013Z,101558.89
2019-04-20T14:28:36.742Z,101552.98
2019-04-20T14:31:05.860Z,101553.03
2019-04-20T14:33:34.897Z,101544.72
2019-04-20T14:36:03.659Z,101540.39
2019-04-20T14:38:32.353Z,101540.70
2019-04-20T14:41:02.239Z,101538.09
2019-04-20T14:43:32.945Z,101541.42
2019-04-20T14:46:02.950Z,101544.05
2019-04-20T14:48:31.863Z,101541.05
2019-04-20T14:51:01.506Z,101529.11
2019-04-20T14:53:31.484Z,101522.54
2019-04-20T14:56:01.750Z,101522.39
2019-04-20T14:58:45.242Z,101520.11
2019-04-20T15:01:26.913Z,101515.90
2019-04-20T15:03:59.819Z,101514.76
2019-04-20T15:06:27.471Z,101505.27
2019-04-20T15:08:56.675Z,101507.39
2019-04-20T15:11:25.485Z,101500.30
2019-04-20T15:13:54.143Z,101498.90
2019-04-20T15:16:22.968Z,101492.68
2019-04-20T15:19:09.792Z,101500.83
2019-04-20T15:21:39.649Z,101509.56
2019-04-20T15:24:09.355Z,101502.19
2019-04-20T15:26:38.507Z,101503.20
2019-04-20T15:29:08.422Z,101494.66
2019-04-20T15:31:38.418Z,101494.53
2019-04-20T15:34:08.815Z,101484.56
2019-04-20T15:36:38.135Z,101487.70
2019-04-20T15:39:09.300Z,101490.97
2019-04-20T15:41:39.137Z,101486.98
2019-04-20T15:44:09.290Z,101483.31
2019-04-20T15:46:38.811Z,101488.36
2019-04-20T15:49:08.575Z,101483.83
2019-04-20T15:51:37.539Z,101481.95
2019-04-20T15:54:07.528Z,101487.23
2019-04-20T15:56:37.602Z,101479.59
2019-04-20T15:59:06.508Z,101479.83
2019-04-20T16:01:42.180Z,101481.86
2019-04-20T16:04:37.288Z,101480.26
2019-04-20T16:07:03.423Z,101480.16
2019-04-20T16:09:33.666Z,101480.05
2019-04-20T16:12:02.742Z,101468.34
2019-04-20T16:14:31.390Z,101470.59
2019-04-20T16:17:03.972Z,101466.95
2019-04-20T16:19:40.690Z,101466.34
2019-04-20T16:22:01.808Z,101470.84
2019-04-20T16:24:34.646Z,101473.44
2019-04-20T16:27:21.536Z,101466.71
2019-04-20T16:29:51.609Z,101458.98
2019-04-20T16:32:20.678Z,101456.69
2019-04-20T16:34:50.692Z,101454.97
2019-04-20T16:37:20.178Z,101458.80
2019-04-20T16:39:50.329Z,101462.18
2019-04-20T16:42:20.284Z,101460.44
2019-04-20T16:44:49.453Z,101461.59
2019-04-20T16:47:18.449Z,101452.47
2019-04-20T16:49:48.718Z,101455.98
2019-04-20T16:52:18.946Z,101444.08
2019-04-20T16:54:48.193Z,101449.77
2019-04-20T16:57:17.266Z,101447.70
2019-04-20T16:59:50.524Z,101443.09
2019-04-20T17:02:17.877Z,101441.58
2019-04-20T17:04:47.485Z,101437.23
2019-04-20T17:07:26.921Z,101438.45
2019-04-20T17:09:55.970Z,101429.66
2019-04-20T17:12:25.810Z,101428.28
2019-04-20T17:14:55.762Z,101433.80
2019-04-20T17:17:25.334Z,101430.24
2019-04-20T17:19:55.407Z,101437.33
2019-04-20T17:22:25.488Z,101438.62
2019-04-20T17:24:55.555Z,101442.36
2019-04-20T17:27:44.704Z,101440.70
2019-04-20T17:30:47.843Z,101434.36
2019-04-20T17:33:24.060Z,101436.63
2019-04-20T17:36:03.060Z,101436.66
2019-04-20T17:38:22.599Z,101444.08
2019-04-20T17:41:08.761Z,101436.35
2019-04-20T17:43:29.206Z,101438.20
2019-04-20T17:45:59.613Z,101440.37
2019-04-20T17:48:34.962Z,101439.88
2019-04-20T17:51:13.949Z,101437.91
2019-04-20T17:53:56.786Z,101441.59
2019-04-20T17:56:22.467Z,101440.23
2019-04-20T17:58:52.225Z,101441.11
2019-04-20T18:01:47.837Z,101447.53
2019-04-20T18:04:38.286Z,101447.53
2019-04-20T18:06:52.576Z,101460.84
2019-04-20T18:09:34.814Z,101461.59
2019-04-20T18:11:44.907Z,101473.39
2019-04-20T18:14:28.603Z,101467.25
2019-04-20T18:16:58.059Z,101467.41
2019-04-20T18:19:22.295Z,101467.09
2019-04-20T18:21:53.807Z,101471.83
2019-04-20T18:24:43.585Z,101477.20
2019-04-20T18:27:23.312Z,101481.78
2019-04-20T18:29:42.990Z,101479.41
2019-04-20T18:32:05.130Z,101477.03
2019-04-20T18:34:45.875Z,101480.23
2019-04-20T18:37:16.907Z,101482.37
2019-04-20T18:39:53.438Z,101485.05
2019-04-20T18:42:21.289Z,101492.90
2019-04-20T18:45:03.913Z,101485.07
2019-04-20T18:47:37.292Z,101493.39
2019-04-20T18:49:54.952Z,101492.91
2019-04-20T18:52:15.760Z,101500.92
2019-04-20T18:54:47.877Z,101496.45
2019-04-20T18:57:21.479Z,101498.52
2019-04-20T18:59:50.913Z,101495.20
2019-04-20T19:02:23.082Z,101490.89
2019-04-20T19:04:48.100Z,101500.05
2019-04-20T19:07:17.535Z,101498.23
2019-04-20T19:09:46.701Z,101497.03
2019-04-20T19:12:16.529Z,101498.47
2019-04-20T19:15:13.164Z,101492.62
2019-04-20T19:17:52.167Z,101501.63
2019-04-20T19:20:22.103Z,101500.70
2019-04-20T19:22:50.733Z,101496.69
2019-04-20T19:25:27.373Z,101503.47
2019-04-20T19:27:54.685Z,101502.44
2019-04-20T19:30:31.146Z,101503.17
2019-04-20T19:33:10.846Z,101506.39
2019-04-20T19:35:33.664Z,101508.28
2019-04-20T19:38:03.353Z,101515.50
2019-04-20T19:40:33.651Z,101512.33
2019-04-20T19:43:06.993Z,101511.39
2019-04-20T19:45:46.629Z,101511.13
2019-04-20T19:48:12.278Z,101516.58
2019-04-20T19:50:53.769Z,101517.21
2019-04-20T19:53:21.158Z,101522.55
2019-04-20T19:55:41.226Z,101513.30
2019-04-20T19:58:08.488Z,101528.16
2019-04-20T20:00:51.244Z,101516.34
2019-04-20T20:03:19.733Z,101525.70
2019-04-20T20:05:50.909Z,101516.72
2019-04-20T20:08:23.632Z,101522.48
2019-04-20T20:10:50.627Z,101518.77
2019-04-20T20:13:20.424Z,101526.02
2019-04-20T20:15:57.669Z,101526.34
2019-04-20T20:18:35.349Z,101528.30
2019-04-20T20:21:04.765Z,101532.92
2019-04-20T20:23:20.621Z,101526.55
2019-04-20T20:25:50.645Z,101526.33
2019-04-20T20:28:30.509Z,101534.20
2019-04-20T20:31:03.365Z,101531.95
2019-04-20T20:33:39.253Z,101525.27
2019-04-20T20:36:02.230Z,101529.45
2019-04-20T20:38:28.008Z,101535.33
2019-04-20T20:41:02.575Z,101539.93
2019-04-20T20:43:39.861Z,101536.33
2019-04-20T20:46:05.370Z,101534.64
2019-04-20T20:48:37.963Z,101541.67
2019-04-20T20:51:12.496Z,101541.16
2019-04-20T20:53:41.381Z,101544.40
2019-04-20T20:56:06.332Z,101539.25
2019-04-20T20:58:36.161Z,101538.18
2019-04-20T21:01:04.547Z,101538.52
2019-04-20T21:03:32.270Z,101541.89
2019-04-20T21:05:56.046Z,101538.52
2019-04-20T21:08:25.831Z,101539.78
2019-04-20T21:10:54.815Z,101536.02
2019-04-20T21:13:25.938Z,101534.73
2019-04-20T21:16:02.597Z,101535.08
2019-04-20T21:18:43.670Z,101537.98
2019-04-20T21:21:15.036Z,101535.64
2019-04-20T21:23:40.995Z,101539.50
2019-04-20T21:26:12.830Z,101531.46
2019-04-20T21:28:40.149Z,101531.34
2019-04-20T21:31:16.314Z,101530.83
2019-04-20T21:33:40.970Z,101533.47
2019-04-20T21:36:13.557Z,101533.66
2019-04-20T21:38:42.740Z,101534.81
2019-04-20T21:41:15.020Z,101528.55
2019-04-20T21:43:44.406Z,101527.42
2019-04-20T21:46:13.461Z,101528.80
2019-04-20T21:48:58.820Z,101522.89
2019-04-20T21:51:24.392Z,101519.73
2019-04-20T21:53:44.162Z,101529.59
2019-04-20T21:56:13.164Z,101517.20
2019-04-20T21:58:49.462Z,101519.67
2019-04-20T22:01:22.138Z,101519.86
2019-04-20T22:03:44.918Z,101514.29
2019-04-20T22:06:14.142Z,101519.14
2019-04-20T22:08:49.386Z,101522.13
2019-04-20T22:11:15.671Z,101516.86
2019-04-20T22:13:46.423Z,101521.80
2019-04-20T22:16:16.685Z,101516.65
2019-04-20T22:18:50.977Z,101514.50
2019-04-20T22:21:22.451Z,101511.34
2019-04-20T22:24:01.814Z,101512.66
2019-04-20T22:26:25.392Z,101507.20
2019-04-20T22:28:47.933Z,101505.91
2019-04-20T22:31:18.352Z,101502.44
2019-04-20T22:33:48.694Z,101506.55
2019-04-20T22:36:18.198Z,101504.72
2019-04-20T22:39:07.528Z,101497.31
2019-04-20T22:41:40.772Z,101493.68
2019-04-20T22:44:15.452Z,101500.95
2019-04-20T22:46:42.183Z,101490.23
2019-04-20T22:49:29.452Z,101495.80
2019-04-20T22:51:53.151Z,101493.63
2019-04-20T22:54:28.015Z,101495.63
2019-04-20T22:56:55.006Z,101495.66
2019-04-20T22:59:16.534Z,101491.18
2019-04-20T23:01:48.484Z,101493.64
2019-04-20T23:04:15.008Z,101495.27
2019-04-20T23:06:49.553Z,101485.03
2019-04-20T23:09:16.855Z,101491.29
2019-04-20T23:11:45.687Z,101486.34
2019-04-20T23:14:14.505Z,101488.11
2019-04-20T23:16:48.366Z,101483.54
2019-04-20T23:19:14.229Z,101479.55
2019-04-20T23:21:49.614Z,101478.02
2019-04-20T23:24:15.351Z,101480.53
2019-04-20T23:26:45.940Z,101475.34
2019-04-20T23:29:15.378Z,101476.20
2019-04-20T23:31:49.291Z,101477.23
2019-04-20T23:34:20.140Z,101471.09
2019-04-20T23:36:47.636Z,101469.49
2019-04-20T23:39:16.903Z,101464.92
2019-04-20T23:41:53.644Z,101466.55
2019-04-20T23:44:21.047Z,101465.41
2019-04-20T23:47:05.361Z,101458.56
2019-04-20T23:49:53.525Z,101462.50
2019-04-20T23:52:30.708Z,101459.84
2019-04-20T23:54:37.213Z,101456.70
2019-04-20T23:57:05.932Z,101458.94
2019-04-20T23:59:39.559Z,101456.66
